Time;durP1;ratioP1;P1;durP2;ratioP2;P2;SDS_P1;SDS_P2;PMS_P1;PMS_P2;Temp;Humidity;BMP_temperature;BMP_pressure;BME280_temperature;BME280_humidity;BME280_pressure;Samples;Min_cycle;Max_cycle;Signal;HPM_P1;HPM_P2
2023/09/28 00:02:58;;;;;;;22.40;10.10;;;;;;;;;;5056487;28;20040;-38
2023/09/28 00:05:25;;;;;;;24.25;10.55;;;;;;;;;;5066675;28;20052;-47
2023/09/28 00:07:51;;;;;;;20.42;10.50;;;;;;;;;;5064100;28;20028;-47
2023/09/28 00:10:19;;;;;;;21.00;9.48;;;;;;;;;;5064700;28;20085;-45
2023/09/28 00:12:47;;;;;;;25.63;9.18;;;;;;;;;;5066965;28;20036;-40
2023/09/28 00:15:14;;;;;;;17.05;9.20;;;;;;;;;;5060853;28;20021;-44
2023/09/28 00:17:41;;;;;;;15.43;8.15;;;;;;;;;;5074877;28;20355;-47
2023/09/28 00:20:28;;;;;;;20.80;8.50;;;;;;;;;;5067075;28;20029;-35
2023/09/28 00:22:55;;;;;;;22.92;14.20;;;;;;;;;;5062748;28;20056;-39
2023/09/28 00:25:23;;;;;;;37.28;22.55;;;;;;;;;;5064724;28;20112;-38
2023/09/28 00:27:51;;;;;;;33.28;21.08;;;;;;;;;;5063324;28;20025;-42
2023/09/28 00:30:20;;;;;;;29.52;21.08;;;;;;;;;;5063988;28;20356;-52
2023/09/28 00:32:47;;;;;;;30.33;19.42;;;;;;;;;;5064471;28;20037;-48
2023/09/28 00:35:14;;;;;;;24.75;17.13;;;;;;;;;;5064840;28;20024;-38
2023/09/28 00:37:41;;;;;;;23.75;17.42;;;;;;;;;;5059982;28;20062;-40
2023/09/28 00:43:08;;;;;;;22.80;13.65;;;;;;;;;;5032667;28;20042;-40
2023/09/28 00:45:35;;;;;;;22.98;11.68;;;;;;;;;;5047410;28;20132;-39
2023/09/28 00:48:05;;;;;;;17.38;10.85;;;;;;;;;;5057748;28;20060;-44
2023/09/28 00:50:32;;;;;;;22.80;12.02;;;;;;;;;;5054253;28;20025;-40
2023/09/28 00:53:00;;;;;;;28.52;12.30;;;;;;;;;;5059221;28;20040;-38
2023/09/28 00:55:29;;;;;;;49.55;14.80;;;;;;;;;;5054938;28;20087;-42
2023/09/28 00:58:11;;;;;;;35.13;14.30;;;;;;;;;;5061868;28;20162;-49
2023/09/28 01:00:40;;;;;;;30.77;14.60;;;;;;;;;;5065478;28;20033;-42
2023/09/28 01:03:07;;;;;;;26.42;13.30;;;;;;;;;;5059758;28;20082;-40
2023/09/28 01:05:38;;;;;;;22.20;12.90;;;;;;;;;;5044844;28;20025;-36
2023/09/28 01:08:09;;;;;;;28.65;16.98;;;;;;;;;;5044941;28;20056;-35
2023/09/28 01:10:37;;;;;;;30.05;18.42;;;;;;;;;;5043904;28;20309;-39
2023/09/28 01:13:15;;;;;;;30.90;17.45;;;;;;;;;;5045299;28;20036;-51
2023/09/28 01:15:43;;;;;;;20.17;15.00;;;;;;;;;;5045311;28;20056;-41
2023/09/28 01:18:10;;;;;;;25.77;13.95;;;;;;;;;;5054057;28;20045;-40
2023/09/28 01:20:37;;;;;;;20.80;12.88;;;;;;;;;;5060521;28;20037;-44
2023/09/28 01:23:08;;;;;;;17.95;11.45;;;;;;;;;;5053888;28;20032;-41
2023/09/28 01:25:35;;;;;;;16.08;11.05;;;;;;;;;;5053671;28;20044;-36
2023/09/28 01:28:02;;;;;;;17.92;10.45;;;;;;;;;;5055645;28;20205;-41
2023/09/28 01:30:29;;;;;;;17.48;10.13;;;;;;;;;;5054302;28;20040;-42
2023/09/28 01:32:55;;;;;;;20.33;9.18;;;;;;;;;;5055459;28;20088;-39
2023/09/28 01:35:23;;;;;;;13.00;7.78;;;;;;;;;;5055351;28;20027;-40
2023/09/28 01:38:11;;;;;;;10.05;6.57;;;;;;;;;;5054228;28;20032;-39
2023/09/28 01:40:38;;;;;;;11.20;6.60;;;;;;;;;;5056710;28;20100;-42
2023/09/28 01:43:05;;;;;;;15.27;6.35;;;;;;;;;;5053590;28;20037;-40
2023/09/28 01:45:33;;;;;;;9.85;5.90;;;;;;;;;;5055170;28;20035;-43
2023/09/28 01:48:00;;;;;;;8.20;6.70;;;;;;;;;;5058954;28;20051;-41
2023/09/28 01:50:28;;;;;;;12.70;6.70;;;;;;;;;;5055061;28;20024;-42
2023/09/28 01:52:54;;;;;;;11.65;7.97;;;;;;;;;;5059499;28;20033;-46
2023/09/28 01:55:21;;;;;;;11.43;7.80;;;;;;;;;;5058493;28;20033;-45
2023/09/28 01:57:48;;;;;;;14.57;8.10;;;;;;;;;;5055844;28;20021;-49
2023/09/28 02:00:24;;;;;;;12.00;7.47;;;;;;;;;;5056938;28;20025;-43
2023/09/28 02:02:53;;;;;;;13.90;8.27;;;;;;;;;;5054547;28;20036;-38
2023/09/28 02:05:23;;;;;;;13.52;9.18;;;;;;;;;;5053900;28;20293;-38
2023/09/28 02:07:50;;;;;;;8.48;7.50;;;;;;;;;;5057769;28;20337;-40
2023/09/28 02:10:16;;;;;;;12.70;7.72;;;;;;;;;;5053193;28;20020;-39
2023/09/28 02:12:44;;;;;;;10.80;7.07;;;;;;;;;;5053195;28;20087;-39
2023/09/28 02:15:14;;;;;;;8.48;5.63;;;;;;;;;;5056314;28;20035;-42
2023/09/28 02:17:42;;;;;;;7.70;5.05;;;;;;;;;;5054657;28;20317;-37
2023/09/28 02:20:10;;;;;;;19.10;6.13;;;;;;;;;;5057941;28;20029;-48
2023/09/28 02:22:44;;;;;;;6.13;5.05;;;;;;;;;;5052937;28;20086;-36
2023/09/28 02:25:15;;;;;;;5.95;4.88;;;;;;;;;;5053314;28;20029;-47
2023/09/28 02:27:45;;;;;;;6.40;4.80;;;;;;;;;;5053422;28;20040;-41
2023/09/28 02:30:13;;;;;;;14.73;5.38;;;;;;;;;;5052018;28;20067;-46
2023/09/28 02:32:40;;;;;;;7.75;4.80;;;;;;;;;;5052280;28;20025;-50
2023/09/28 02:35:09;;;;;;;6.13;5.10;;;;;;;;;;5053354;28;20037;-40
2023/09/28 02:37:35;;;;;;;6.80;5.18;;;;;;;;;;5056345;28;20024;-47
2023/09/28 02:40:06;;;;;;;16.17;14.57;;;;;;;;;;5054082;28;20093;-39
2023/09/28 02:42:36;;;;;;;11.05;9.90;;;;;;;;;;5052622;28;20029;-38
2023/09/28 02:45:11;;;;;;;22.23;20.30;;;;;;;;;;5048306;28;20040;-43
2023/09/28 02:47:41;;;;;;;14.10;11.05;;;;;;;;;;5063095;28;20202;-45
2023/09/28 02:50:11;;;;;;;10.93;9.57;;;;;;;;;;5050177;28;20185;-42
2023/09/28 02:52:42;;;;;;;8.55;7.28;;;;;;;;;;5043548;28;20036;-41
2023/09/28 02:55:10;;;;;;;9.25;6.75;;;;;;;;;;5043178;28;20029;-48
2023/09/28 02:57:37;;;;;;;6.63;6.03;;;;;;;;;;5046692;28;20037;-44
2023/09/28 03:00:37;;;;;;;9.25;6.35;;;;;;;;;;5063547;28;20021;-41
2023/09/28 03:02:57;;;;;;;9.40;5.82;;;;;;;;;;5061373;28;20072;-41
2023/09/28 03:05:24;;;;;;;8.50;5.85;;;;;;;;;;5054938;28;20032;-41
2023/09/28 03:07:50;;;;;;;9.55;5.10;;;;;;;;;;5059143;28;20053;-41
2023/09/28 03:10:17;;;;;;;11.55;4.90;;;;;;;;;;5063474;28;20032;-42
2023/09/28 03:12:49;;;;;;;6.45;5.28;;;;;;;;;;5063624;28;20055;-47
2023/09/28 03:15:16;;;;;;;7.13;5.03;;;;;;;;;;5063762;28;20024;-44
2023/09/28 03:17:43;;;;;;;11.88;4.57;;;;;;;;;;5063244;28;20325;-42
2023/09/28 03:20:13;;;;;;;7.72;4.97;;;;;;;;;;5056897;28;20039;-46
2023/09/28 03:22:41;;;;;;;6.95;4.63;;;;;;;;;;5049311;28;20022;-50
2023/09/28 03:25:16;;;;;;;7.75;4.82;;;;;;;;;;5043160;28;20084;-51
2023/09/28 03:27:43;;;;;;;5.93;4.60;;;;;;;;;;5043275;28;20104;-50
2023/09/28 03:30:11;;;;;;;6.93;4.50;;;;;;;;;;5043225;28;20048;-40
2023/09/28 03:32:40;;;;;;;6.50;4.57;;;;;;;;;;5043624;28;20040;-41
2023/09/28 03:35:10;;;;;;;6.53;4.60;;;;;;;;;;5043372;28;20021;-42
2023/09/28 03:37:37;;;;;;;6.15;4.30;;;;;;;;;;5043225;28;20082;-42
2023/09/28 03:40:11;;;;;;;6.35;4.50;;;;;;;;;;5043292;28;20037;-41
2023/09/28 03:42:38;;;;;;;7.95;3.80;;;;;;;;;;5046262;28;20049;-41
2023/09/28 03:45:08;;;;;;;7.05;4.00;;;;;;;;;;5046716;28;20040;-43
2023/09/28 03:47:39;;;;;;;6.97;4.18;;;;;;;;;;5046786;28;20026;-45
2023/09/28 03:50:06;;;;;;;5.25;3.80;;;;;;;;;;5046793;28;20026;-44
2023/09/28 03:52:37;;;;;;;5.72;4.40;;;;;;;;;;5046676;28;20055;-41
2023/09/28 03:55:04;;;;;;;10.25;4.38;;;;;;;;;;5046673;28;20336;-44
2023/09/28 03:57:31;;;;;;;5.43;3.63;;;;;;;;;;5046586;28;20063;-42
2023/09/28 03:59:58;;;;;;;7.93;4.45;;;;;;;;;;5046664;28;20098;-39
2023/09/28 04:02:31;;;;;;;6.53;4.10;;;;;;;;;;5046592;28;20135;-40
2023/09/28 04:04:57;;;;;;;13.13;4.00;;;;;;;;;;5046366;28;20041;-41
2023/09/28 04:07:24;;;;;;;6.60;4.28;;;;;;;;;;5068919;28;20032;-47
2023/09/28 04:09:51;;;;;;;6.20;4.28;;;;;;;;;;5046532;28;20041;-40
2023/09/28 04:12:18;;;;;;;5.88;4.53;;;;;;;;;;5080802;28;20347;-45
2023/09/28 04:14:44;;;;;;;7.60;4.20;;;;;;;;;;5086536;28;20031;-44
2023/09/28 04:17:11;;;;;;;9.35;4.43;;;;;;;;;;5069776;28;20084;-41
2023/09/28 04:19:37;;;;;;;6.57;4.50;;;;;;;;;;5053125;28;20040;-45
2023/09/28 04:22:04;;;;;;;5.30;4.35;;;;;;;;;;5065767;28;20037;-44
2023/09/28 04:24:31;;;;;;;5.35;4.35;;;;;;;;;;5066186;28;20024;-46
2023/09/28 04:26:58;;;;;;;7.22;4.75;;;;;;;;;;5065783;28;20214;-41
2023/09/28 04:29:25;;;;;;;7.70;4.75;;;;;;;;;;5066025;28;20048;-41
2023/09/28 04:31:54;;;;;;;8.60;5.13;;;;;;;;;;5066515;28;20013;-42
2023/09/28 04:34:21;;;;;;;9.38;5.22;;;;;;;;;;5065859;28;20261;-42
2023/09/28 04:36:50;;;;;;;8.43;4.85;;;;;;;;;;5064087;28;20059;-39
2023/09/28 04:39:17;;;;;;;9.27;4.85;;;;;;;;;;5064221;28;20021;-43
2023/09/28 04:41:46;;;;;;;7.97;4.85;;;;;;;;;;5064502;28;20045;-45
2023/09/28 04:44:12;;;;;;;7.00;5.18;;;;;;;;;;5063512;28;20025;-51
2023/09/28 04:46:39;;;;;;;8.15;5.10;;;;;;;;;;5064320;28;20092;-49
2023/09/28 04:49:05;;;;;;;6.55;5.40;;;;;;;;;;5064021;28;20099;-42
2023/09/28 04:51:32;;;;;;;6.82;4.63;;;;;;;;;;5056817;28;20083;-43
2023/09/28 04:54:02;;;;;;;9.88;5.13;;;;;;;;;;5045166;28;20013;-42
2023/09/28 04:56:30;;;;;;;5.43;4.70;;;;;;;;;;5045907;28;20029;-41
2023/09/28 04:58:57;;;;;;;13.57;5.00;;;;;;;;;;5045602;28;20037;-45
2023/09/28 05:01:24;;;;;;;14.57;4.80;;;;;;;;;;5045417;28;20017;-52
2023/09/28 05:03:50;;;;;;;22.83;4.55;;;;;;;;;;5044098;28;20096;-43
2023/09/28 05:06:17;;;;;;;37.75;5.78;;;;;;;;;;5047009;28;20052;-41
2023/09/28 05:08:44;;;;;;;51.33;6.47;;;;;;;;;;5065083;28;20052;-41
2023/09/28 05:11:10;;;;;;;35.00;5.65;;;;;;;;;;5065565;28;20083;-40
2023/09/28 05:13:37;;;;;;;31.50;5.35;;;;;;;;;;5065293;28;20339;-40
2023/09/28 05:16:04;;;;;;;26.77;4.85;;;;;;;;;;5064883;28;20021;-41
2023/09/28 05:18:30;;;;;;;22.60;5.10;;;;;;;;;;5065028;28;20094;-44
2023/09/28 05:20:57;;;;;;;15.43;4.53;;;;;;;;;;5065435;28;20321;-40
2023/09/28 05:23:25;;;;;;;13.15;4.03;;;;;;;;;;5065084;28;20044;-40
2023/09/28 05:25:52;;;;;;;17.08;4.55;;;;;;;;;;5064962;28;20048;-43
2023/09/28 05:28:18;;;;;;;10.45;3.92;;;;;;;;;;5063656;28;20272;-40
2023/09/28 05:30:45;;;;;;;19.45;4.57;;;;;;;;;;5063637;28;20024;-43
2023/09/28 05:33:12;;;;;;;12.60;4.47;;;;;;;;;;5063188;28;20029;-43
2023/09/28 05:35:38;;;;;;;14.90;4.63;;;;;;;;;;5063143;28;20082;-44
2023/09/28 05:38:05;;;;;;;19.73;4.63;;;;;;;;;;5063089;28;20021;-42
2023/09/28 05:40:32;;;;;;;20.17;4.55;;;;;;;;;;5063045;28;20043;-43
2023/09/28 05:42:59;;;;;;;16.35;4.78;;;;;;;;;;5062851;28;20092;-44
2023/09/28 05:45:26;;;;;;;9.02;4.00;;;;;;;;;;5063846;28;20052;-41
2023/09/28 05:47:52;;;;;;;9.48;4.18;;;;;;;;;;5064448;28;20039;-41
2023/09/28 05:50:19;;;;;;;8.32;4.32;;;;;;;;;;5064512;28;20031;-43
2023/09/28 05:52:47;;;;;;;12.90;4.05;;;;;;;;;;5063867;28;20013;-43
2023/09/28 05:55:15;;;;;;;9.68;4.15;;;;;;;;;;5064297;28;20083;-39
2023/09/28 05:57:41;;;;;;;5.90;3.70;;;;;;;;;;5064335;28;20021;-40
2023/09/28 06:00:09;;;;;;;9.85;3.80;;;;;;;;;;5064541;28;20100;-40
2023/09/28 06:02:36;;;;;;;6.80;3.97;;;;;;;;;;5064312;28;20236;-39
2023/09/28 06:05:04;;;;;;;10.98;4.00;;;;;;;;;;5063498;28;20032;-41
2023/09/28 06:07:31;;;;;;;7.07;3.90;;;;;;;;;;5064455;28;20032;-45
2023/09/28 06:09:57;;;;;;;5.70;4.07;;;;;;;;;;5064476;28;20025;-46
2023/09/28 06:12:24;;;;;;;7.47;3.65;;;;;;;;;;5064037;28;20084;-49
2023/09/28 06:14:50;;;;;;;10.35;3.97;;;;;;;;;;5064247;28;20017;-50
2023/09/28 06:17:17;;;;;;;5.95;3.90;;;;;;;;;;5059514;28;20047;-40
2023/09/28 06:19:44;;;;;;;6.35;3.92;;;;;;;;;;5053708;28;20320;-41
2023/09/28 06:22:11;;;;;;;8.07;4.05;;;;;;;;;;5064162;28;20079;-44
2023/09/28 06:24:39;;;;;;;5.57;3.88;;;;;;;;;;5064262;28;20067;-40
2023/09/28 06:27:05;;;;;;;4.50;3.17;;;;;;;;;;5063714;28;20376;-42
2023/09/28 06:29:32;;;;;;;7.65;3.38;;;;;;;;;;5064021;28;20021;-42
2023/09/28 06:32:04;;;;;;;8.43;3.00;;;;;;;;;;5064369;28;20055;-47
2023/09/28 06:34:30;;;;;;;6.85;3.10;;;;;;;;;;5063745;28;20029;-41
2023/09/28 06:36:57;;;;;;;5.95;2.95;;;;;;;;;;5064378;28;20032;-40
2023/09/28 06:39:24;;;;;;;13.80;3.45;;;;;;;;;;5063799;28;20092;-42
2023/09/28 06:41:51;;;;;;;12.63;4.28;;;;;;;;;;5064184;28;20039;-41
2023/09/28 06:44:17;;;;;;;7.85;3.53;;;;;;;;;;5063696;28;20043;-45
2023/09/28 06:46:44;;;;;;;11.73;3.80;;;;;;;;;;5064125;28;20096;-40
2023/09/28 06:49:12;;;;;;;15.30;4.00;;;;;;;;;;5063863;28;20212;-43
2023/09/28 06:51:39;;;;;;;11.45;4.18;;;;;;;;;;5064304;28;20085;-47
2023/09/28 06:54:06;;;;;;;11.85;4.60;;;;;;;;;;5063602;28;20025;-42
2023/09/28 06:56:34;;;;;;;11.35;4.50;;;;;;;;;;5063949;28;20236;-48
2023/09/28 06:59:01;;;;;;;12.48;4.65;;;;;;;;;;5063669;28;20049;-49
2023/09/28 07:01:28;;;;;;;9.57;4.10;;;;;;;;;;5059341;28;20056;-43
2023/09/28 07:03:55;;;;;;;7.78;3.85;;;;;;;;;;5055128;28;20032;-49
2023/09/28 07:06:22;;;;;;;11.18;3.47;;;;;;;;;;5063927;28;20032;-40
2023/09/28 07:08:49;;;;;;;8.10;2.45;;;;;;;;;;5063612;28;20033;-39
2023/09/28 07:11:15;;;;;;;7.18;2.38;;;;;;;;;;5063830;28;20186;-41
2023/09/28 07:13:42;;;;;;;4.53;2.00;;;;;;;;;;5063578;28;20361;-41
2023/09/28 07:16:09;;;;;;;6.45;2.00;;;;;;;;;;5063987;28;20029;-41
2023/09/28 07:18:36;;;;;;;4.85;2.00;;;;;;;;;;5067538;28;20024;-43
2023/09/28 07:21:03;;;;;;;4.88;1.70;;;;;;;;;;5067755;28;20025;-49
2023/09/28 07:23:30;;;;;;;4.28;1.90;;;;;;;;;;5067529;28;20037;-40
2023/09/28 07:25:57;;;;;;;4.25;1.65;;;;;;;;;;5066935;28;20061;-41
2023/09/28 07:28:23;;;;;;;3.78;1.73;;;;;;;;;;5066421;28;20020;-48
2023/09/28 07:30:51;;;;;;;3.85;1.50;;;;;;;;;;5067250;28;20403;-41
2023/09/28 07:33:18;;;;;;;5.70;1.23;;;;;;;;;;5067392;28;20316;-48
2023/09/28 07:35:45;;;;;;;4.25;1.70;;;;;;;;;;5067522;28;20025;-47
2023/09/28 07:38:12;;;;;;;5.03;1.45;;;;;;;;;;5067262;28;20213;-44
2023/09/28 07:40:38;;;;;;;5.93;1.70;;;;;;;;;;5067196;28;20375;-49
2023/09/28 07:43:05;;;;;;;7.68;2.20;;;;;;;;;;5067211;28;20025;-45
2023/09/28 07:45:32;;;;;;;7.30;1.73;;;;;;;;;;5067245;28;20033;-42
2023/09/28 07:47:59;;;;;;;12.02;2.13;;;;;;;;;;5066819;28;20092;-49
2023/09/28 07:50:25;;;;;;;3.00;1.15;;;;;;;;;;5067089;28;20063;-53
2023/09/28 07:52:52;;;;;;;3.88;1.30;;;;;;;;;;5066764;28;20047;-41
2023/09/28 07:55:19;;;;;;;3.53;1.30;;;;;;;;;;5066949;28;20313;-46
2023/09/28 07:57:46;;;;;;;4.97;1.35;;;;;;;;;;5066803;28;20024;-43
2023/09/28 08:00:13;;;;;;;4.28;1.40;;;;;;;;;;5066767;28;20037;-50
2023/09/28 08:02:42;;;;;;;5.10;1.30;;;;;;;;;;5066941;28;20074;-51
2023/09/28 08:05:09;;;;;;;3.58;1.30;;;;;;;;;;5066681;28;20037;-52
2023/09/28 08:07:36;;;;;;;3.60;1.30;;;;;;;;;;5066261;28;20039;-51
2023/09/28 08:10:02;;;;;;;5.43;1.40;;;;;;;;;;5066671;28;20092;-43
2023/09/28 08:12:29;;;;;;;4.63;1.10;;;;;;;;;;5066432;28;20295;-40
2023/09/28 08:14:56;;;;;;;5.45;1.30;;;;;;;;;;5066446;28;20035;-42
2023/09/28 08:17:23;;;;;;;2.75;1.13;;;;;;;;;;5066455;28;20071;-42
2023/09/28 08:19:50;;;;;;;4.88;0.95;;;;;;;;;;5066205;28;20021;-40
2023/09/28 08:22:17;;;;;;;2.33;0.90;;;;;;;;;;5066339;28;20238;-40
2023/09/28 08:24:44;;;;;;;1.63;0.82;;;;;;;;;;5066536;28;20028;-41
2023/09/28 08:27:10;;;;;;;3.25;1.30;;;;;;;;;;5065574;28;20076;-43
2023/09/28 08:29:37;;;;;;;2.05;0.73;;;;;;;;;;5065541;28;20148;-40
2023/09/28 08:32:03;;;;;;;2.80;0.60;;;;;;;;;;5066223;28;20040;-39
2023/09/28 08:34:30;;;;;;;5.85;0.80;;;;;;;;;;5066370;28;20340;-41
2023/09/28 08:36:57;;;;;;;1.98;0.60;;;;;;;;;;5066572;28;20116;-42
2023/09/28 08:39:23;;;;;;;7.18;0.60;;;;;;;;;;5066107;28;20029;-41
2023/09/28 08:41:55;;;;;;;1.70;0.60;;;;;;;;;;5066350;28;20028;-48
2023/09/28 08:44:26;;;;;;;3.00;0.50;;;;;;;;;;5066272;28;20029;-46
2023/09/28 08:46:58;;;;;;;2.00;0.47;;;;;;;;;;5066237;28;20106;-41
2023/09/28 08:49:27;;;;;;;5.55;0.57;;;;;;;;;;5066127;28;20312;-42
2023/09/28 08:51:57;;;;;;;2.60;0.30;;;;;;;;;;5066374;28;20092;-46
2023/09/28 08:54:24;;;;;;;3.08;0.45;;;;;;;;;;5065599;28;20076;-42
2023/09/28 08:56:52;;;;;;;1.42;0.47;;;;;;;;;;5066219;28;20043;-41
2023/09/28 08:59:20;;;;;;;2.88;0.35;;;;;;;;;;5064232;28;20044;-40
2023/09/28 09:01:47;;;;;;;2.20;0.40;;;;;;;;;;5063631;28;20071;-43
2023/09/28 09:04:14;;;;;;;2.15;0.30;;;;;;;;;;5063933;28;20044;-43
2023/09/28 09:06:43;;;;;;;3.08;0.50;;;;;;;;;;5064170;28;20075;-45
2023/09/28 09:09:15;;;;;;;3.50;0.50;;;;;;;;;;5063676;28;20021;-41
2023/09/28 09:11:50;;;;;;;1.73;0.30;;;;;;;;;;5064115;28;20033;-43
2023/09/28 09:14:17;;;;;;;2.30;0.63;;;;;;;;;;5063587;28;20029;-48
2023/09/28 09:16:43;;;;;;;1.35;0.43;;;;;;;;;;5064472;28;20045;-44
2023/09/28 09:19:14;;;;;;;1.10;0.55;;;;;;;;;;5063562;28;20029;-42
2023/09/28 09:21:43;;;;;;;4.45;0.57;;;;;;;;;;5057815;28;20207;-51
2023/09/28 09:24:18;;;;;;;2.83;0.60;;;;;;;;;;5052240;28;20021;-44
2023/09/28 09:26:46;;;;;;;1.60;0.70;;;;;;;;;;5043256;28;20061;-41
2023/09/28 09:29:13;;;;;;;2.95;0.60;;;;;;;;;;5043285;28;20048;-41
2023/09/28 09:31:41;;;;;;;1.50;0.50;;;;;;;;;;5044273;28;20029;-46
2023/09/28 09:34:11;;;;;;;4.72;0.93;;;;;;;;;;5045057;28;20085;-49
2023/09/28 09:36:38;;;;;;;3.28;0.70;;;;;;;;;;5045223;28;20041;-49
2023/09/28 09:39:06;;;;;;;2.92;0.60;;;;;;;;;;5044760;28;20033;-49
2023/09/28 09:41:44;;;;;;;4.43;0.50;;;;;;;;;;5045314;28;20026;-53
2023/09/28 09:44:11;;;;;;;1.60;0.70;;;;;;;;;;5044915;28;20029;-51
2023/09/28 09:46:38;;;;;;;3.17;0.60;;;;;;;;;;5045093;28;20092;-49
2023/09/28 09:49:07;;;;;;;1.40;0.60;;;;;;;;;;5044895;28;20328;-50
2023/09/28 09:51:35;;;;;;;0.95;0.43;;;;;;;;;;5044981;28;20036;-49
2023/09/28 09:54:01;;;;;;;2.55;0.50;;;;;;;;;;5061276;28;20017;-49
2023/09/28 09:56:28;;;;;;;1.98;0.68;;;;;;;;;;5064797;28;20017;-49
2023/09/28 09:58:56;;;;;;;1.17;0.50;;;;;;;;;;5064521;28;20041;-51
2023/09/28 10:01:23;;;;;;;1.17;0.50;;;;;;;;;;5064095;28;20348;-39
2023/09/28 10:03:53;;;;;;;2.92;0.75;;;;;;;;;;5064263;28;20347;-45
2023/09/28 10:06:20;;;;;;;4.03;1.00;;;;;;;;;;5064909;28;20028;-51
2023/09/28 10:08:49;;;;;;;4.47;0.88;;;;;;;;;;5064288;28;20036;-47
2023/09/28 10:11:16;;;;;;;4.00;0.60;;;;;;;;;;5064458;28;20025;-46
2023/09/28 10:13:43;;;;;;;1.35;0.70;;;;;;;;;;5064194;28;20025;-41
2023/09/28 10:16:15;;;;;;;3.63;0.80;;;;;;;;;;5064487;28;20246;-45
2023/09/28 10:18:46;;;;;;;1.13;0.60;;;;;;;;;;5064011;28;20327;-43
2023/09/28 10:21:14;;;;;;;2.92;0.90;;;;;;;;;;5063915;28;20063;-51
2023/09/28 10:23:42;;;;;;;3.58;0.93;;;;;;;;;;5064038;28;20048;-44
2023/09/28 10:26:15;;;;;;;7.95;1.05;;;;;;;;;;5063043;28;20060;-49
2023/09/28 10:29:00;;;;;;;17.30;1.48;;;;;;;;;;5059525;28;20041;-50
2023/09/28 10:31:29;;;;;;;26.38;1.70;;;;;;;;;;5054228;28;20072;-46
2023/09/28 10:34:02;;;;;;;45.10;3.00;;;;;;;;;;5052829;28;20071;-49
2023/09/28 10:36:30;;;;;;;27.80;2.05;;;;;;;;;;5063567;28;20143;-49
2023/09/28 10:39:09;;;;;;;9.35;1.25;;;;;;;;;;5061724;28;20037;-43
2023/09/28 10:41:39;;;;;;;13.23;1.63;;;;;;;;;;5064199;28;20041;-42
2023/09/28 10:44:22;;;;;;;9.50;1.45;;;;;;;;;;5063950;28;20071;-44
2023/09/28 10:46:49;;;;;;;5.22;1.02;;;;;;;;;;5063714;28;20037;-42
2023/09/28 10:49:26;;;;;;;5.50;1.20;;;;;;;;;;5063601;28;20040;-50
2023/09/28 10:51:53;;;;;;;6.53;1.42;;;;;;;;;;5063693;28;20045;-57
2023/09/28 10:54:20;;;;;;;7.03;2.90;;;;;;;;;;5061942;28;20033;-50
2023/09/28 10:56:50;;;;;;;7.88;3.67;;;;;;;;;;5063395;28;20044;-47
2023/09/28 10:59:19;;;;;;;7.30;1.85;;;;;;;;;;5062263;28;20025;-43
2023/09/28 11:01:46;;;;;;;14.43;7.35;;;;;;;;;;5063889;28;20097;-47
2023/09/28 11:04:13;;;;;;;9.52;5.75;;;;;;;;;;5063626;28;20107;-49
2023/09/28 11:06:43;;;;;;;6.20;3.78;;;;;;;;;;5063872;28;20080;-45
2023/09/28 11:09:14;;;;;;;7.00;3.33;;;;;;;;;;5063213;28;20032;-50
2023/09/28 11:11:45;;;;;;;5.25;2.75;;;;;;;;;;5064092;28;20029;-50
2023/09/28 11:14:12;;;;;;;3.75;2.33;;;;;;;;;;5063616;28;20036;-48
2023/09/28 11:16:40;;;;;;;5.45;2.33;;;;;;;;;;5063893;28;20036;-43
2023/09/28 11:19:07;;;;;;;4.82;1.95;;;;;;;;;;5063440;28;20017;-40
2023/09/28 11:21:34;;;;;;;2.42;1.73;;;;;;;;;;5063894;28;20195;-43
2023/09/28 11:24:04;;;;;;;3.65;1.38;;;;;;;;;;5063267;28;20025;-48
2023/09/28 11:26:31;;;;;;;2.72;1.23;;;;;;;;;;5063273;28;20072;-51
2023/09/28 11:28:59;;;;;;;2.33;1.20;;;;;;;;;;5063350;28;20037;-48
2023/09/28 11:31:27;;;;;;;2.47;1.17;;;;;;;;;;5063257;28;20028;-53
2023/09/28 11:33:57;;;;;;;3.47;1.00;;;;;;;;;;5064038;28;20021;-48
2023/09/28 11:36:25;;;;;;;2.53;1.10;;;;;;;;;;5063611;28;20079;-48
2023/09/28 11:38:53;;;;;;;3.08;1.00;;;;;;;;;;5063309;28;20035;-40
2023/09/28 11:41:21;;;;;;;2.15;0.90;;;;;;;;;;5062934;28;20028;-41
2023/09/28 11:43:49;;;;;;;3.90;1.05;;;;;;;;;;5062333;28;20061;-41
2023/09/28 11:46:25;;;;;;;5.32;0.85;;;;;;;;;;5063568;28;20024;-50
2023/09/28 11:49:10;;;;;;;3.17;1.00;;;;;;;;;;5063214;28;20036;-47
2023/09/28 11:51:37;;;;;;;4.80;0.93;;;;;;;;;;5063766;28;20024;-47
2023/09/28 11:54:14;;;;;;;6.22;1.08;;;;;;;;;;5063132;28;20048;-46
2023/09/28 11:56:41;;;;;;;5.15;1.15;;;;;;;;;;5063496;28;20028;-40
2023/09/28 11:59:09;;;;;;;12.45;1.52;;;;;;;;;;5063101;28;20025;-42
2023/09/28 12:01:36;;;;;;;16.08;1.50;;;;;;;;;;5063482;28;20033;-49
2023/09/28 12:04:03;;;;;;;8.95;1.50;;;;;;;;;;5065096;28;20017;-46
2023/09/28 12:06:31;;;;;;;5.50;1.10;;;;;;;;;;5067167;28;20025;-47
2023/09/28 12:08:57;;;;;;;11.27;1.85;;;;;;;;;;5066550;28;20029;-51
2023/09/28 12:11:24;;;;;;;14.73;1.60;;;;;;;;;;5066863;28;20076;-42
2023/09/28 12:13:52;;;;;;;7.85;1.55;;;;;;;;;;5066649;28;20048;-47
2023/09/28 12:16:22;;;;;;;4.53;1.63;;;;;;;;;;5066384;28;20321;-42
2023/09/28 12:18:49;;;;;;;8.55;1.40;;;;;;;;;;5066350;28;20362;-43
2023/09/28 12:21:16;;;;;;;5.43;1.27;;;;;;;;;;5066665;28;20033;-41
2023/09/28 12:23:42;;;;;;;2.95;0.90;;;;;;;;;;5066295;28;20040;-47
2023/09/28 12:26:10;;;;;;;1.95;0.77;;;;;;;;;;5066019;28;20385;-50
2023/09/28 12:28:37;;;;;;;3.00;1.00;;;;;;;;;;5066285;28;20259;-44
2023/09/28 12:31:04;;;;;;;2.30;1.13;;;;;;;;;;5066583;28;20037;-46
2023/09/28 12:33:31;;;;;;;3.42;1.23;;;;;;;;;;5066040;28;20024;-44
2023/09/28 12:35:58;;;;;;;3.17;1.10;;;;;;;;;;5066420;28;20041;-47
2023/09/28 12:38:25;;;;;;;2.25;1.00;;;;;;;;;;5066076;28;20025;-39
2023/09/28 12:40:52;;;;;;;3.63;1.00;;;;;;;;;;5066210;28;20092;-43
2023/09/28 12:43:20;;;;;;;6.68;1.60;;;;;;;;;;5065955;28;20033;-37
2023/09/28 12:45:47;;;;;;;6.57;1.27;;;;;;;;;;5066041;28;20029;-37
2023/09/28 12:48:20;;;;;;;4.85;1.08;;;;;;;;;;5065679;28;20312;-38
2023/09/28 12:50:50;;;;;;;5.90;1.30;;;;;;;;;;5066036;28;20033;-37
2023/09/28 12:53:17;;;;;;;2.95;0.98;;;;;;;;;;5065586;28;20043;-37
2023/09/28 12:55:44;;;;;;;5.07;1.00;;;;;;;;;;5065956;28;20052;-42
2023/09/28 12:58:11;;;;;;;7.32;3.08;;;;;;;;;;5064135;28;20045;-38
2023/09/28 13:00:39;;;;;;;2.97;2.25;;;;;;;;;;5063804;28;20045;-37
2023/09/28 13:03:09;;;;;;;14.13;11.50;;;;;;;;;;5063988;28;20036;-37
2023/09/28 13:05:41;;;;;;;11.38;10.13;;;;;;;;;;5064193;28;20398;-39
2023/09/28 13:08:09;;;;;;;4.13;2.78;;;;;;;;;;5063714;28;20293;-39
2023/09/28 13:10:36;;;;;;;5.03;2.25;;;;;;;;;;5064017;28;20033;-43
2023/09/28 13:13:05;;;;;;;4.18;3.15;;;;;;;;;;5065124;28;20028;-37
2023/09/28 13:15:33;;;;;;;114.07;16.70;;;;;;;;;;5064907;28;20193;-40
2023/09/28 13:18:07;;;;;;;41.25;9.32;;;;;;;;;;5065409;28;20036;-40
2023/09/28 13:20:36;;;;;;;30.60;5.10;;;;;;;;;;5065287;28;20051;-49
2023/09/28 13:23:02;;;;;;;8.32;2.38;;;;;;;;;;5065285;28;20066;-40
2023/09/28 13:25:32;;;;;;;16.75;3.05;;;;;;;;;;5065019;28;20052;-44
2023/09/28 13:27:58;;;;;;;7.25;1.48;;;;;;;;;;5064973;28;20020;-39
2023/09/28 13:30:29;;;;;;;5.00;1.70;;;;;;;;;;5065291;28;20029;-46
2023/09/28 13:32:57;;;;;;;7.22;1.80;;;;;;;;;;5065063;28;20048;-44
2023/09/28 13:35:23;;;;;;;4.97;2.33;;;;;;;;;;5065020;28;20020;-43
2023/09/28 13:37:52;;;;;;;5.80;2.50;;;;;;;;;;5064953;28;20056;-37
2023/09/28 13:40:40;;;;;;;5.88;2.05;;;;;;;;;;5064994;28;20205;-40
2023/09/28 13:43:05;;;;;;;3.95;1.85;;;;;;;;;;5064384;28;20025;-40
2023/09/28 13:45:33;;;;;;;2.45;1.40;;;;;;;;;;5070991;28;20297;-39
2023/09/28 13:47:59;;;;;;;3.80;1.20;;;;;;;;;;5044868;28;20075;-48
2023/09/28 13:50:30;;;;;;;6.35;1.20;;;;;;;;;;5045174;28;20029;-39
2023/09/28 13:52:57;;;;;;;2.20;1.23;;;;;;;;;;5044521;28;20033;-43
2023/09/28 13:55:25;;;;;;;2.08;1.30;;;;;;;;;;5044591;28;20029;-46
2023/09/28 13:57:53;;;;;;;5.20;1.40;;;;;;;;;;5044502;28;20318;-55
2023/09/28 14:00:33;;;;;;;1.90;1.25;;;;;;;;;;5044465;28;20398;-46
2023/09/28 14:03:00;;;;;;;2.97;1.30;;;;;;;;;;5043566;28;20344;-41
2023/09/28 14:05:27;;;;;;;3.88;1.02;;;;;;;;;;5042634;28;20314;-37
2023/09/28 14:07:56;;;;;;;1.35;0.95;;;;;;;;;;5042475;28;20045;-42
2023/09/28 14:10:22;;;;;;;3.40;0.90;;;;;;;;;;5049575;28;20040;-48
2023/09/28 14:12:49;;;;;;;1.15;0.75;;;;;;;;;;5071811;28;20209;-42
2023/09/28 14:15:16;;;;;;;1.55;1.00;;;;;;;;;;5082935;28;20044;-40
2023/09/28 14:17:49;;;;;;;2.55;0.77;;;;;;;;;;5083701;28;20064;-43
2023/09/28 14:20:16;;;;;;;1.55;0.98;;;;;;;;;;5084410;28;20058;-39
2023/09/28 14:22:48;;;;;;;2.47;0.90;;;;;;;;;;5084064;28;20382;-40
2023/09/28 14:25:15;;;;;;;2.50;0.85;;;;;;;;;;5064931;28;20094;-40
2023/09/28 14:27:43;;;;;;;2.05;0.73;;;;;;;;;;5052398;28;20372;-48
2023/09/28 14:30:10;;;;;;;2.22;1.05;;;;;;;;;;5052225;28;20027;-45
2023/09/28 14:32:37;;;;;;;8.20;1.50;;;;;;;;;;5053450;28;20021;-41
2023/09/28 14:35:04;;;;;;;9.85;1.48;;;;;;;;;;5054701;28;20064;-41
2023/09/28 14:37:32;;;;;;;3.80;1.02;;;;;;;;;;5052760;28;20067;-38
2023/09/28 14:40:00;;;;;;;10.27;1.38;;;;;;;;;;5053040;28;20052;-41
2023/09/28 14:42:27;;;;;;;6.55;1.33;;;;;;;;;;5054479;28;20028;-43
2023/09/28 14:44:53;;;;;;;39.58;4.55;;;;;;;;;;5053002;28;20010;-43
2023/09/28 14:47:20;;;;;;;49.58;5.03;;;;;;;;;;5052768;28;20032;-44
2023/09/28 14:49:47;;;;;;;46.83;4.80;;;;;;;;;;5054449;28;20088;-40